CPX652 Details

Departure: Lynden Pindling International Airport (MYNN)
Arrival: Miami International Airport (KMIA) at N/A
Route: ZQA FOWEE9
Notes:


Current Weather Information
MYNN 251200Z 20005KT 9999 SCT015CB BKN200 29/25 A2999
KMIA 251153Z 20005KT 10SM FEW020 FEW045 SCT250 27/24 A2994 RMK AO2 SLP138 CB DSNT E-SE MOV NE 70003 T02720239 10278 20267 53010